sensor_id;sensor_type;location;lat;lon;timestamp;P1;durP1;ratioP1;P2;durP2;ratioP2
57249;SDS011;43102;52.014;-0.680;2023-03-01T00:00:00;3.90;;;3.00;;
57249;SDS011;43102;52.014;-0.680;2023-03-01T00:01:02;3.90;;;3.00;;
57249;SDS011;43102;52.014;-0.680;2023-03-01T00:02:01;3.90;;;3.00;;
57249;SDS011;43102;52.014;-0.680;2023-03-01T00:03:00;3.90;;;3.00;;
57249;SDS011;43102;52.014;-0.680;2023-03-01T00:04:00;3.90;;;3.00;;
57249;SDS011;43102;52.014;-0.680;2023-03-01T00:05:00;3.90;;;3.00;;
57249;SDS011;43102;52.014;-0.680;2023-03-01T00:06:01;3.90;;;3.00;;
57249;SDS011;43102;52.014;-0.680;2023-03-01T00:07:00;3.90;;;3.00;;
57249;SDS011;43102;52.014;-0.680;2023-03-01T00:08:00;3.90;;;3.00;;
57249;SDS011;43102;52.014;-0.680;2023-03-01T00:09:00;3.90;;;3.00;;
57249;SDS011;43102;52.014;-0.680;2023-03-01T00:10:00;3.90;;;3.00;;
57249;SDS011;43102;52.014;-0.680;2023-03-01T00:11:04;3.50;;;2.30;;
57249;SDS011;43102;52.014;-0.680;2023-03-01T00:12:00;3.50;;;2.30;;
57249;SDS011;43102;52.014;-0.680;2023-03-01T00:13:00;3.50;;;2.30;;
57249;SDS011;43102;52.014;-0.680;2023-03-01T00:14:01;3.50;;;2.30;;
57249;SDS011;43102;52.014;-0.680;2023-03-01T00:15:00;3.50;;;2.30;;
57249;SDS011;43102;52.014;-0.680;2023-03-01T00:16:11;3.50;;;2.30;;
57249;SDS011;43102;52.014;-0.680;2023-03-01T00:17:01;3.50;;;2.30;;
57249;SDS011;43102;52.014;-0.680;2023-03-01T00:18:00;3.50;;;2.30;;
57249;SDS011;43102;52.014;-0.680;2023-03-01T00:19:01;3.50;;;2.30;;
57249;SDS011;43102;52.014;-0.680;2023-03-01T00:20:00;3.50;;;2.30;;
57249;SDS011;43102;52.014;-0.680;2023-03-01T00:21:00;3.50;;;2.30;;
57249;SDS011;43102;52.014;-0.680;2023-03-01T00:22:00;3.50;;;2.30;;
57249;SDS011;43102;52.014;-0.680;2023-03-01T00:23:00;3.50;;;2.30;;
57249;SDS011;43102;52.014;-0.680;2023-03-01T00:24:01;3.50;;;2.30;;
57249;SDS011;43102;52.014;-0.680;2023-03-01T00:25:00;3.50;;;2.30;;
57249;SDS011;43102;52.014;-0.680;2023-03-01T00:26:00;3.50;;;2.30;;
57249;SDS011;43102;52.014;-0.680;2023-03-01T00:27:00;3.50;;;2.30;;
57249;SDS011;43102;52.014;-0.680;2023-03-01T00:28:00;3.50;;;2.30;;
57249;SDS011;43102;52.014;-0.680;2023-03-01T00:29:00;3.50;;;2.30;;
57249;SDS011;43102;52.014;-0.680;2023-03-01T00:30:00;3.50;;;2.30;;
57249;SDS011;43102;52.014;-0.680;2023-03-01T00:31:05;3.50;;;2.30;;
57249;SDS011;43102;52.014;-0.680;2023-03-01T00:32:00;3.50;;;2.30;;
57249;SDS011;43102;52.014;-0.680;2023-03-01T00:33:00;3.50;;;2.30;;
57249;SDS011;43102;52.014;-0.680;2023-03-01T00:34:04;3.50;;;2.30;;
57249;SDS011;43102;52.014;-0.680;2023-03-01T00:35:00;3.50;;;2.30;;
57249;SDS011;43102;52.014;-0.680;2023-03-01T00:36:01;3.50;;;2.30;;
57249;SDS011;43102;52.014;-0.680;2023-03-01T00:37:05;3.50;;;2.30;;
57249;SDS011;43102;52.014;-0.680;2023-03-01T00:38:01;3.50;;;2.30;;
57249;SDS011;43102;52.014;-0.680;2023-03-01T00:39:01;3.50;;;2.30;;
57249;SDS011;43102;52.014;-0.680;2023-03-01T00:40:00;3.50;;;2.30;;
57249;SDS011;43102;52.014;-0.680;2023-03-01T00:41:05;2.00;;;1.40;;
57249;SDS011;43102;52.014;-0.680;2023-03-01T00:42:00;2.00;;;1.40;;
57249;SDS011;43102;52.014;-0.680;2023-03-01T00:43:01;2.00;;;1.40;;
57249;SDS011;43102;52.014;-0.680;2023-03-01T00:44:00;2.00;;;1.40;;
57249;SDS011;43102;52.014;-0.680;2023-03-01T00:45:00;2.00;;;1.40;;
57249;SDS011;43102;52.014;-0.680;2023-03-01T00:46:01;2.00;;;1.40;;
57249;SDS011;43102;52.014;-0.680;2023-03-01T00:47:00;2.00;;;1.40;;
57249;SDS011;43102;52.014;-0.680;2023-03-01T00:48:00;2.00;;;1.40;;
57249;SDS011;43102;52.014;-0.680;2023-03-01T00:49:02;2.00;;;1.40;;
57249;SDS011;43102;52.014;-0.680;2023-03-01T00:50:00;2.00;;;1.40;;
57249;SDS011;43102;52.014;-0.680;2023-03-01T00:51:12;2.00;;;1.40;;
57249;SDS011;43102;52.014;-0.680;2023-03-01T00:52:00;2.00;;;1.40;;
57249;SDS011;43102;52.014;-0.680;2023-03-01T00:53:00;2.00;;;1.40;;
57249;SDS011;43102;52.014;-0.680;2023-03-01T00:54:02;2.00;;;1.40;;
57249;SDS011;43102;52.014;-0.680;2023-03-01T00:55:00;2.00;;;1.40;;
57249;SDS011;43102;52.014;-0.680;2023-03-01T00:56:01;2.00;;;1.40;;
57249;SDS011;43102;52.014;-0.680;2023-03-01T00:57:00;2.00;;;1.40;;
57249;SDS011;43102;52.014;-0.680;2023-03-01T00:58:00;2.00;;;1.40;;
57249;SDS011;43102;52.014;-0.680;2023-03-01T00:59:01;2.00;;;1.40;;
57249;SDS011;43102;52.014;-0.680;2023-03-01T01:00:00;2.00;;;1.40;;
57249;SDS011;43102;52.014;-0.680;2023-03-01T01:01:00;2.00;;;1.40;;
57249;SDS011;43102;52.014;-0.680;2023-03-01T01:02:00;2.00;;;1.40;;
57249;SDS011;43102;52.014;-0.680;2023-03-01T01:03:00;2.00;;;1.40;;
57249;SDS011;43102;52.014;-0.680;2023-03-01T01:04:03;2.00;;;1.40;;
57249;SDS011;43102;52.014;-0.680;2023-03-01T01:05:00;2.00;;;1.40;;
57249;SDS011;43102;52.014;-0.680;2023-03-01T01:06:13;2.00;;;1.40;;
57249;SDS011;43102;52.014;-0.680;2023-03-01T01:07:00;2.00;;;1.40;;
57249;SDS011;43102;52.014;-0.680;2023-03-01T01:08:00;2.00;;;1.40;;
57249;SDS011;43102;52.014;-0.680;2023-03-01T01:09:01;2.00;;;1.40;;
57249;SDS011;43102;52.014;-0.680;2023-03-01T01:10:00;2.00;;;1.40;;
57249;SDS011;43102;52.014;-0.680;2023-03-01T01:11:00;2.30;;;1.70;;
57249;SDS011;43102;52.014;-0.680;2023-03-01T01:12:00;2.30;;;1.70;;
57249;SDS011;43102;52.014;-0.680;2023-03-01T01:13:00;2.30;;;1.70;;
57249;SDS011;43102;52.014;-0.680;2023-03-01T01:14:00;2.30;;;1.70;;
57249;SDS011;43102;52.014;-0.680;2023-03-01T01:15:00;2.30;;;1.70;;
57249;SDS011;43102;52.014;-0.680;2023-03-01T01:16:01;2.30;;;1.70;;
57249;SDS011;43102;52.014;-0.680;2023-03-01T01:17:00;2.30;;;1.70;;
57249;SDS011;43102;52.014;-0.680;2023-03-01T01:18:01;2.30;;;1.70;;
57249;SDS011;43102;52.014;-0.680;2023-03-01T01:19:00;2.30;;;1.70;;
57249;SDS011;43102;52.014;-0.680;2023-03-01T01:20:00;2.30;;;1.70;;
57249;SDS011;43102;52.014;-0.680;2023-03-01T01:21:09;2.30;;;1.70;;
57249;SDS011;43102;52.014;-0.680;2023-03-01T01:22:00;2.30;;;1.70;;
57249;SDS011;43102;52.014;-0.680;2023-03-01T01:23:00;2.30;;;1.70;;
57249;SDS011;43102;52.014;-0.680;2023-03-01T01:24:02;2.30;;;1.70;;
57249;SDS011;43102;52.014;-0.680;2023-03-01T01:25:00;2.30;;;1.70;;
57249;SDS011;43102;52.014;-0.680;2023-03-01T01:26:04;2.30;;;1.70;;
57249;SDS011;43102;52.014;-0.680;2023-03-01T01:27:00;2.30;;;1.70;;
57249;SDS011;43102;52.014;-0.680;2023-03-01T01:28:00;2.30;;;1.70;;
57249;SDS011;43102;52.014;-0.680;2023-03-01T01:29:02;2.30;;;1.70;;
57249;SDS011;43102;52.014;-0.680;2023-03-01T01:30:00;2.30;;;1.70;;
57249;SDS011;43102;52.014;-0.680;2023-03-01T01:31:00;2.30;;;1.70;;
57249;SDS011;43102;52.014;-0.680;2023-03-01T01:32:00;2.30;;;1.70;;
57249;SDS011;43102;52.014;-0.680;2023-03-01T01:33:00;2.30;;;1.70;;
57249;SDS011;43102;52.014;-0.680;2023-03-01T01:34:02;2.30;;;1.70;;
57249;SDS011;43102;52.014;-0.680;2023-03-01T01:35:00;2.30;;;1.70;;
57249;SDS011;43102;52.014;-0.680;2023-03-01T01:36:00;2.30;;;1.70;;
57249;SDS011;43102;52.014;-0.680;2023-03-01T01:37:02;2.30;;;1.70;;
57249;SDS011;43102;52.014;-0.680;2023-03-01T01:38:00;2.30;;;1.70;;
57249;SDS011;43102;52.014;-0.680;2023-03-01T01:39:01;2.30;;;1.70;;
57249;SDS011;43102;52.014;-0.680;2023-03-01T01:40:03;2.30;;;1.70;;
57249;SDS011;43102;52.014;-0.680;2023-03-01T01:41:00;3.00;;;2.60;;
57249;SDS011;43102;52.014;-0.680;2023-03-01T01:42:01;3.00;;;2.60;;
57249;SDS011;43102;52.014;-0.680;2023-03-01T01:43:00;3.00;;;2.60;;
57249;SDS011;43102;52.014;-0.680;2023-03-01T01:44:19;3.00;;;2.60;;
57249;SDS011;43102;52.014;-0.680;2023-03-01T01:46:06;3.00;;;2.60;;
57249;SDS011;43102;52.014;-0.680;2023-03-01T01:47:03;3.00;;;2.60;;
57249;SDS011;43102;52.014;-0.680;2023-03-01T01:48:07;3.00;;;2.60;;
57249;SDS011;43102;52.014;-0.680;2023-03-01T01:49:03;3.00;;;2.60;;
57249;SDS011;43102;52.014;-0.680;2023-03-01T01:50:01;3.00;;;2.60;;
57249;SDS011;43102;52.014;-0.680;2023-03-01T01:51:00;3.00;;;2.60;;
57249;SDS011;43102;52.014;-0.680;2023-03-01T01:52:07;3.00;;;2.60;;
57249;SDS011;43102;52.014;-0.680;2023-03-01T01:53:00;3.00;;;2.60;;
57249;SDS011;43102;52.014;-0.680;2023-03-01T01:54:01;3.00;;;2.60;;
57249;SDS011;43102;52.014;-0.680;2023-03-01T01:55:04;3.00;;;2.60;;
57249;SDS011;43102;52.014;-0.680;2023-03-01T01:56:01;3.00;;;2.60;;
57249;SDS011;43102;52.014;-0.680;2023-03-01T01:57:03;3.00;;;2.60;;
57249;SDS011;43102;52.014;-0.680;2023-03-01T01:58:05;3.00;;;2.60;;
57249;SDS011;43102;52.014;-0.680;2023-03-01T01:59:01;3.00;;;2.60;;
57249;SDS011;43102;52.014;-0.680;2023-03-01T02:00:05;3.00;;;2.60;;
57249;SDS011;43102;52.014;-0.680;2023-03-01T02:01:01;3.00;;;2.60;;
57249;SDS011;43102;52.014;-0.680;2023-03-01T02:02:03;3.00;;;2.60;;
57249;SDS011;43102;52.014;-0.680;2023-03-01T02:03:04;3.00;;;2.60;;
57249;SDS011;43102;52.014;-0.680;2023-03-01T02:04:01;3.00;;;2.60;;
57249;SDS011;43102;52.014;-0.680;2023-03-01T02:05:05;3.00;;;2.60;;
57249;SDS011;43102;52.014;-0.680;2023-03-01T02:06:07;3.00;;;2.60;;
57249;SDS011;43102;52.014;-0.680;2023-03-01T02:07:04;3.00;;;2.60;;
57249;SDS011;43102;52.014;-0.680;2023-03-01T02:08:00;3.00;;;2.60;;
57249;SDS011;43102;52.014;-0.680;2023-03-01T02:09:04;3.00;;;2.60;;
57249;SDS011;43102;52.014;-0.680;2023-03-01T02:10:01;3.00;;;2.60;;
57249;SDS011;43102;52.014;-0.680;2023-03-01T02:11:01;3.60;;;2.00;;
57249;SDS011;43102;52.014;-0.680;2023-03-01T02:12:01;3.60;;;2.00;;
57249;SDS011;43102;52.014;-0.680;2023-03-01T02:13:02;3.60;;;2.00;;
57249;SDS011;43102;52.014;-0.680;2023-03-01T02:14:00;3.60;;;2.00;;
57249;SDS011;43102;52.014;-0.680;2023-03-01T02:15:00;3.60;;;2.00;;
57249;SDS011;43102;52.014;-0.680;2023-03-01T02:16:11;3.60;;;2.00;;
57249;SDS011;43102;52.014;-0.680;2023-03-01T02:17:00;3.60;;;2.00;;
57249;SDS011;43102;52.014;-0.680;2023-03-01T02:18:01;3.60;;;2.00;;
57249;SDS011;43102;52.014;-0.680;2023-03-01T02:19:01;3.60;;;2.00;;
57249;SDS011;43102;52.014;-0.680;2023-03-01T02:20:15;3.60;;;2.00;;
57249;SDS011;43102;52.014;-0.680;2023-03-01T02:21:17;3.60;;;2.00;;
57249;SDS011;43102;52.014;-0.680;2023-03-01T02:22:12;3.60;;;2.00;;
57249;SDS011;43102;52.014;-0.680;2023-03-01T02:23:00;3.60;;;2.00;;
57249;SDS011;43102;52.014;-0.680;2023-03-01T02:24:07;3.60;;;2.00;;
57249;SDS011;43102;52.014;-0.680;2023-03-01T02:26:07;3.60;;;2.00;;
57249;SDS011;43102;52.014;-0.680;2023-03-01T02:27:00;3.60;;;2.00;;
57249;SDS011;43102;52.014;-0.680;2023-03-01T02:29:00;3.60;;;2.00;;
57249;SDS011;43102;52.014;-0.680;2023-03-01T02:30:00;3.60;;;2.00;;
57249;SDS011;43102;52.014;-0.680;2023-03-01T02:31:13;3.60;;;2.00;;
57249;SDS011;43102;52.014;-0.680;2023-03-01T02:32:02;3.60;;;2.00;;
57249;SDS011;43102;52.014;-0.680;2023-03-01T02:33:03;3.60;;;2.00;;
57249;SDS011;43102;52.014;-0.680;2023-03-01T02:34:01;3.60;;;2.00;;
57249;SDS011;43102;52.014;-0.680;2023-03-01T02:35:00;3.60;;;2.00;;
57249;SDS011;43102;52.014;-0.680;2023-03-01T02:36:01;3.60;;;2.00;;
57249;SDS011;43102;52.014;-0.680;2023-03-01T02:37:07;3.60;;;2.00;;
57249;SDS011;43102;52.014;-0.680;2023-03-01T02:38:01;3.60;;;2.00;;
57249;SDS011;43102;52.014;-0.680;2023-03-01T02:39:02;3.60;;;2.00;;
57249;SDS011;43102;52.014;-0.680;2023-03-01T02:40:06;3.60;;;2.00;;
57249;SDS011;43102;52.014;-0.680;2023-03-01T02:41:02;6.70;;;3.10;;
57249;SDS011;43102;52.014;-0.680;2023-03-01T02:42:01;6.70;;;3.10;;
57249;SDS011;43102;52.014;-0.680;2023-03-01T02:43:00;6.70;;;3.10;;
57249;SDS011;43102;52.014;-0.680;2023-03-01T02:44:00;6.70;;;3.10;;
57249;SDS011;43102;52.014;-0.680;2023-03-01T02:45:00;6.70;;;3.10;;
57249;SDS011;43102;52.014;-0.680;2023-03-01T02:46:06;6.70;;;3.10;;
57249;SDS011;43102;52.014;-0.680;2023-03-01T02:47:03;6.70;;;3.10;;
57249;SDS011;43102;52.014;-0.680;2023-03-01T02:48:00;6.70;;;3.10;;
57249;SDS011;43102;52.014;-0.680;2023-03-01T02:49:01;6.70;;;3.10;;
57249;SDS011;43102;52.014;-0.680;2023-03-01T02:50:00;6.70;;;3.10;;
57249;SDS011;43102;52.014;-0.680;2023-03-01T02:53:08;6.70;;;3.10;;
57249;SDS011;43102;52.014;-0.680;2023-03-01T02:54:13;6.70;;;3.10;;
57249;SDS011;43102;52.014;-0.680;2023-03-01T02:55:02;6.70;;;3.10;;
57249;SDS011;43102;52.014;-0.680;2023-03-01T02:56:00;6.70;;;3.10;;
57249;SDS011;43102;52.014;-0.680;2023-03-01T02:57:01;6.70;;;3.10;;
57249;SDS011;43102;52.014;-0.680;2023-03-01T02:58:02;6.70;;;3.10;;
57249;SDS011;43102;52.014;-0.680;2023-03-01T02:59:00;6.70;;;3.10;;
57249;SDS011;43102;52.014;-0.680;2023-03-01T03:00:07;6.70;;;3.10;;
57249;SDS011;43102;52.014;-0.680;2023-03-01T03:01:00;6.70;;;3.10;;
57249;SDS011;43102;52.014;-0.680;2023-03-01T03:02:01;6.70;;;3.10;;
57249;SDS011;43102;52.014;-0.680;2023-03-01T03:03:00;6.70;;;3.10;;
57249;SDS011;43102;52.014;-0.680;2023-03-01T03:04:00;6.70;;;3.10;;
57249;SDS011;43102;52.014;-0.680;2023-03-01T03:05:00;6.70;;;3.10;;
57249;SDS011;43102;52.014;-0.680;2023-03-01T03:06:00;6.70;;;3.10;;
57249;SDS011;43102;52.014;-0.680;2023-03-01T03:07:00;6.70;;;3.10;;
57249;SDS011;43102;52.014;-0.680;2023-03-01T03:08:02;6.70;;;3.10;;
57249;SDS011;43102;52.014;-0.680;2023-03-01T03:09:01;6.70;;;3.10;;
57249;SDS011;43102;52.014;-0.680;2023-03-01T03:10:01;6.70;;;3.10;;
57249;SDS011;43102;52.014;-0.680;2023-03-01T03:11:00;5.40;;;3.50;;
57249;SDS011;43102;52.014;-0.680;2023-03-01T03:12:00;5.40;;;3.50;;
57249;SDS011;43102;52.014;-0.680;2023-03-01T03:13:03;5.40;;;3.50;;
57249;SDS011;43102;52.014;-0.680;2023-03-01T03:14:01;5.40;;;3.50;;
57249;SDS011;43102;52.014;-0.680;2023-03-01T03:15:00;5.40;;;3.50;;
57249;SDS011;43102;52.014;-0.680;2023-03-01T03:16:02;5.40;;;3.50;;
57249;SDS011;43102;52.014;-0.680;2023-03-01T03:17:00;5.40;;;3.50;;
57249;SDS011;43102;52.014;-0.680;2023-03-01T03:18:00;5.40;;;3.50;;
57249;SDS011;43102;52.014;-0.680;2023-03-01T03:19:04;5.40;;;3.50;;
57249;SDS011;43102;52.014;-0.680;2023-03-01T03:20:00;5.40;;;3.50;;
57249;SDS011;43102;52.014;-0.680;2023-03-01T03:21:00;5.40;;;3.50;;
57249;SDS011;43102;52.014;-0.680;2023-03-01T03:22:01;5.40;;;3.50;;
57249;SDS011;43102;52.014;-0.680;2023-03-01T03:23:00;5.40;;;3.50;;
57249;SDS011;43102;52.014;-0.680;2023-03-01T03:24:00;5.40;;;3.50;;
57249;SDS011;43102;52.014;-0.680;2023-03-01T03:25:00;5.40;;;3.50;;
57249;SDS011;43102;52.014;-0.680;2023-03-01T03:26:00;5.40;;;3.50;;
57249;SDS011;43102;52.014;-0.680;2023-03-01T03:27:00;5.40;;;3.50;;
57249;SDS011;43102;52.014;-0.680;2023-03-01T03:28:00;5.40;;;3.50;;
57249;SDS011;43102;52.014;-0.680;2023-03-01T03:29:01;5.40;;;3.50;;
57249;SDS011;43102;52.014;-0.680;2023-03-01T03:30:00;5.40;;;3.50;;
57249;SDS011;43102;52.014;-0.680;2023-03-01T03:31:03;5.40;;;3.50;;
57249;SDS011;43102;52.014;-0.680;2023-03-01T03:32:00;5.40;;;3.50;;
57249;SDS011;43102;52.014;-0.680;2023-03-01T03:33:00;5.40;;;3.50;;
57249;SDS011;43102;52.014;-0.680;2023-03-01T03:34:00;5.40;;;3.50;;
57249;SDS011;43102;52.014;-0.680;2023-03-01T03:35:00;5.40;;;3.50;;
57249;SDS011;43102;52.014;-0.680;2023-03-01T03:36:00;5.40;;;3.50;;
57249;SDS011;43102;52.014;-0.680;2023-03-01T03:37:00;5.40;;;3.50;;
57249;SDS011;43102;52.014;-0.680;2023-03-01T03:38:04;5.40;;;3.50;;
57249;SDS011;43102;52.014;-0.680;2023-03-01T03:39:00;5.40;;;3.50;;
57249;SDS011;43102;52.014;-0.680;2023-03-01T03:40:00;5.40;;;3.50;;
57249;SDS011;43102;52.014;-0.680;2023-03-01T03:41:04;9.30;;;4.30;;
57249;SDS011;43102;52.014;-0.680;2023-03-01T03:42:00;9.30;;;4.30;;
57249;SDS011;43102;52.014;-0.680;2023-03-01T03:43:01;9.30;;;4.30;;
57249;SDS011;43102;52.014;-0.680;2023-03-01T03:44:00;9.30;;;4.30;;
57249;SDS011;43102;52.014;-0.680;2023-03-01T03:45:00;9.30;;;4.30;;
57249;SDS011;43102;52.014;-0.680;2023-03-01T03:46:00;9.30;;;4.30;;
57249;SDS011;43102;52.014;-0.680;2023-03-01T03:47:00;9.30;;;4.30;;
57249;SDS011;43102;52.014;-0.680;2023-03-01T03:48:01;9.30;;;4.30;;
57249;SDS011;43102;52.014;-0.680;2023-03-01T03:49:00;9.30;;;4.30;;
57249;SDS011;43102;52.014;-0.680;2023-03-01T03:50:00;9.30;;;4.30;;
57249;SDS011;43102;52.014;-0.680;2023-03-01T03:51:00;9.30;;;4.30;;
57249;SDS011;43102;52.014;-0.680;2023-03-01T03:52:00;9.30;;;4.30;;
57249;SDS011;43102;52.014;-0.680;2023-03-01T03:53:02;9.30;;;4.30;;
57249;SDS011;43102;52.014;-0.680;2023-03-01T03:54:00;9.30;;;4.30;;
57249;SDS011;43102;52.014;-0.680;2023-03-01T03:55:00;9.30;;;4.30;;
57249;SDS011;43102;52.014;-0.680;2023-03-01T03:56:00;9.30;;;4.30;;
57249;SDS011;43102;52.014;-0.680;2023-03-01T03:57:00;9.30;;;4.30;;
57249;SDS011;43102;52.014;-0.680;2023-03-01T03:58:07;9.30;;;4.30;;
57249;SDS011;43102;52.014;-0.680;2023-03-01T03:59:00;9.30;;;4.30;;
57249;SDS011;43102;52.014;-0.680;2023-03-01T04:00:00;9.30;;;4.30;;
57249;SDS011;43102;52.014;-0.680;2023-03-01T04:01:01;9.30;;;4.30;;
57249;SDS011;43102;52.014;-0.680;2023-03-01T04:02:00;9.30;;;4.30;;
57249;SDS011;43102;52.014;-0.680;2023-03-01T04:03:00;9.30;;;4.30;;
57249;SDS011;43102;52.014;-0.680;2023-03-01T04:04:03;9.30;;;4.30;;
57249;SDS011;43102;52.014;-0.680;2023-03-01T04:05:00;9.30;;;4.30;;
57249;SDS011;43102;52.014;-0.680;2023-03-01T04:06:01;9.30;;;4.30;;
57249;SDS011;43102;52.014;-0.680;2023-03-01T04:07:00;9.30;;;4.30;;
57249;SDS011;43102;52.014;-0.680;2023-03-01T04:08:07;9.30;;;4.30;;
57249;SDS011;43102;52.014;-0.680;2023-03-01T04:09:02;9.30;;;4.30;;
57249;SDS011;43102;52.014;-0.680;2023-03-01T04:10:01;9.30;;;4.30;;
57249;SDS011;43102;52.014;-0.680;2023-03-01T04:11:11;8.80;;;5.80;;
57249;SDS011;43102;52.014;-0.680;2023-03-01T04:12:00;8.80;;;5.80;;
57249;SDS011;43102;52.014;-0.680;2023-03-01T04:13:00;8.80;;;5.80;;
57249;SDS011;43102;52.014;-0.680;2023-03-01T04:14:00;8.80;;;5.80;;
57249;SDS011;43102;52.014;-0.680;2023-03-01T04:15:12;8.80;;;5.80;;
57249;SDS011;43102;52.014;-0.680;2023-03-01T04:16:00;8.80;;;5.80;;
57249;SDS011;43102;52.014;-0.680;2023-03-01T04:17:01;8.80;;;5.80;;
57249;SDS011;43102;52.014;-0.680;2023-03-01T04:18:01;8.80;;;5.80;;
57249;SDS011;43102;52.014;-0.680;2023-03-01T04:19:00;8.80;;;5.80;;
57249;SDS011;43102;52.014;-0.680;2023-03-01T04:20:05;8.80;;;5.80;;
57249;SDS011;43102;52.014;-0.680;2023-03-01T04:21:00;8.80;;;5.80;;
57249;SDS011;43102;52.014;-0.680;2023-03-01T04:22:00;8.80;;;5.80;;
57249;SDS011;43102;52.014;-0.680;2023-03-01T04:23:13;8.80;;;5.80;;
57249;SDS011;43102;52.014;-0.680;2023-03-01T04:24:02;8.80;;;5.80;;
57249;SDS011;43102;52.014;-0.680;2023-03-01T04:25:01;8.80;;;5.80;;
57249;SDS011;43102;52.014;-0.680;2023-03-01T04:26:00;8.80;;;5.80;;
57249;SDS011;43102;52.014;-0.680;2023-03-01T04:27:00;8.80;;;5.80;;
57249;SDS011;43102;52.014;-0.680;2023-03-01T04:28:00;8.80;;;5.80;;
57249;SDS011;43102;52.014;-0.680;2023-03-01T04:29:00;8.80;;;5.80;;
57249;SDS011;43102;52.014;-0.680;2023-03-01T04:30:01;8.80;;;5.80;;
57249;SDS011;43102;52.014;-0.680;2023-03-01T04:31:13;8.80;;;5.80;;
57249;SDS011;43102;52.014;-0.680;2023-03-01T04:32:00;8.80;;;5.80;;
57249;SDS011;43102;52.014;-0.680;2023-03-01T04:33:00;8.80;;;5.80;;
57249;SDS011;43102;52.014;-0.680;2023-03-01T04:34:00;8.80;;;5.80;;
57249;SDS011;43102;52.014;-0.680;2023-03-01T04:35:00;8.80;;;5.80;;
57249;SDS011;43102;52.014;-0.680;2023-03-01T04:36:00;8.80;;;5.80;;
57249;SDS011;43102;52.014;-0.680;2023-03-01T04:37:00;8.80;;;5.80;;
57249;SDS011;43102;52.014;-0.680;2023-03-01T04:38:00;8.80;;;5.80;;
57249;SDS011;43102;52.014;-0.680;2023-03-01T04:39:10;8.80;;;5.80;;
57249;SDS011;43102;52.014;-0.680;2023-03-01T04:40:02;8.80;;;5.80;;
57249;SDS011;43102;52.014;-0.680;2023-03-01T04:41:00;10.60;;;6.80;;
57249;SDS011;43102;52.014;-0.680;2023-03-01T04:42:00;10.60;;;6.80;;
57249;SDS011;43102;52.014;-0.680;2023-03-01T04:43:00;10.60;;;6.80;;
57249;SDS011;43102;52.014;-0.680;2023-03-01T04:44:00;10.60;;;6.80;;
57249;SDS011;43102;52.014;-0.680;2023-03-01T04:45:00;10.60;;;6.80;;
57249;SDS011;43102;52.014;-0.680;2023-03-01T04:46:03;10.60;;;6.80;;
57249;SDS011;43102;52.014;-0.680;2023-03-01T04:47:00;10.60;;;6.80;;
57249;SDS011;43102;52.014;-0.680;2023-03-01T04:48:00;10.60;;;6.80;;
57249;SDS011;43102;52.014;-0.680;2023-03-01T04:49:00;10.60;;;6.80;;
57249;SDS011;43102;52.014;-0.680;2023-03-01T04:50:00;10.60;;;6.80;;
57249;SDS011;43102;52.014;-0.680;2023-03-01T04:51:00;10.60;;;6.80;;
57249;SDS011;43102;52.014;-0.680;2023-03-01T04:52:03;10.60;;;6.80;;
57249;SDS011;43102;52.014;-0.680;2023-03-01T04:53:00;10.60;;;6.80;;
57249;SDS011;43102;52.014;-0.680;2023-03-01T04:54:00;10.60;;;6.80;;
57249;SDS011;43102;52.014;-0.680;2023-03-01T04:55:00;10.60;;;6.80;;
57249;SDS011;43102;52.014;-0.680;2023-03-01T04:56:00;10.60;;;6.80;;
57249;SDS011;43102;52.014;-0.680;2023-03-01T04:57:02;10.60;;;6.80;;
57249;SDS011;43102;52.014;-0.680;2023-03-01T04:58:00;10.60;;;6.80;;
57249;SDS011;43102;52.014;-0.680;2023-03-01T04:59:00;10.60;;;6.80;;
57249;SDS011;43102;52.014;-0.680;2023-03-01T05:00:00;10.60;;;6.80;;
57249;SDS011;43102;52.014;-0.680;2023-03-01T05:01:00;10.60;;;6.80;;
57249;SDS011;43102;52.014;-0.680;2023-03-01T05:02:00;10.60;;;6.80;;
57249;SDS011;43102;52.014;-0.680;2023-03-01T05:03:01;10.60;;;6.80;;
57249;SDS011;43102;52.014;-0.680;2023-03-01T05:04:02;10.60;;;6.80;;
57249;SDS011;43102;52.014;-0.680;2023-03-01T05:05:00;10.60;;;6.80;;
57249;SDS011;43102;52.014;-0.680;2023-03-01T05:06:00;10.60;;;6.80;;
57249;SDS011;43102;52.014;-0.680;2023-03-01T05:07:00;10.60;;;6.80;;
57249;SDS011;43102;52.014;-0.680;2023-03-01T05:08:02;10.60;;;6.80;;
57249;SDS011;43102;52.014;-0.680;2023-03-01T05:09:00;10.60;;;6.80;;
57249;SDS011;43102;52.014;-0.680;2023-03-01T05:10:00;10.60;;;6.80;;
57249;SDS011;43102;52.014;-0.680;2023-03-01T05:11:00;7.60;;;4.20;;
57249;SDS011;43102;52.014;-0.680;2023-03-01T05:12:00;7.60;;;4.20;;
57249;SDS011;43102;52.014;-0.680;2023-03-01T05:13:01;7.60;;;4.20;;
57249;SDS011;43102;52.014;-0.680;2023-03-01T05:14:00;7.60;;;4.20;;
57249;SDS011;43102;52.014;-0.680;2023-03-01T05:15:00;7.60;;;4.20;;
57249;SDS011;43102;52.014;-0.680;2023-03-01T05:16:01;7.60;;;4.20;;
57249;SDS011;43102;52.014;-0.680;2023-03-01T05:17:03;7.60;;;4.20;;
57249;SDS011;43102;52.014;-0.680;2023-03-01T05:18:00;7.60;;;4.20;;
57249;SDS011;43102;52.014;-0.680;2023-03-01T05:19:00;7.60;;;4.20;;
57249;SDS011;43102;52.014;-0.680;2023-03-01T05:20:00;7.60;;;4.20;;
57249;SDS011;43102;52.014;-0.680;2023-03-01T05:21:05;7.60;;;4.20;;
57249;SDS011;43102;52.014;-0.680;2023-03-01T05:22:01;7.60;;;4.20;;
57249;SDS011;43102;52.014;-0.680;2023-03-01T05:23:05;7.60;;;4.20;;
57249;SDS011;43102;52.014;-0.680;2023-03-01T05:24:00;7.60;;;4.20;;
57249;SDS011;43102;52.014;-0.680;2023-03-01T05:25:00;7.60;;;4.20;;
57249;SDS011;43102;52.014;-0.680;2023-03-01T05:26:01;7.60;;;4.20;;
57249;SDS011;43102;52.014;-0.680;2023-03-01T05:27:01;7.60;;;4.20;;
57249;SDS011;43102;52.014;-0.680;2023-03-01T05:28:04;7.60;;;4.20;;
57249;SDS011;43102;52.014;-0.680;2023-03-01T05:29:01;7.60;;;4.20;;
57249;SDS011;43102;52.014;-0.680;2023-03-01T05:30:10;7.60;;;4.20;;
57249;SDS011;43102;52.014;-0.680;2023-03-01T05:31:00;7.60;;;4.20;;
57249;SDS011;43102;52.014;-0.680;2023-03-01T05:32:02;7.60;;;4.20;;
57249;SDS011;43102;52.014;-0.680;2023-03-01T05:33:00;7.60;;;4.20;;
57249;SDS011;43102;52.014;-0.680;2023-03-01T05:34:01;7.60;;;4.20;;
57249;SDS011;43102;52.014;-0.680;2023-03-01T05:35:00;7.60;;;4.20;;
57249;SDS011;43102;52.014;-0.680;2023-03-01T05:36:00;7.60;;;4.20;;
57249;SDS011;43102;52.014;-0.680;2023-03-01T05:37:01;7.60;;;4.20;;
57249;SDS011;43102;52.014;-0.680;2023-03-01T05:38:00;7.60;;;4.20;;
57249;SDS011;43102;52.014;-0.680;2023-03-01T05:39:00;7.60;;;4.20;;
57249;SDS011;43102;52.014;-0.680;2023-03-01T05:40:00;7.60;;;4.20;;
57249;SDS011;43102;52.014;-0.680;2023-03-01T05:41:00;8.00;;;5.20;;
57249;SDS011;43102;52.014;-0.680;2023-03-01T05:42:01;8.00;;;5.20;;
57249;SDS011;43102;52.014;-0.680;2023-03-01T05:43:00;8.00;;;5.20;;
57249;SDS011;43102;52.014;-0.680;2023-03-01T05:44:00;8.00;;;5.20;;
57249;SDS011;43102;52.014;-0.680;2023-03-01T05:45:00;8.00;;;5.20;;
57249;SDS011;43102;52.014;-0.680;2023-03-01T05:46:00;8.00;;;5.20;;
57249;SDS011;43102;52.014;-0.680;2023-03-01T05:47:00;8.00;;;5.20;;
57249;SDS011;43102;52.014;-0.680;2023-03-01T05:48:00;8.00;;;5.20;;
57249;SDS011;43102;52.014;-0.680;2023-03-01T05:49:00;8.00;;;5.20;;
57249;SDS011;43102;52.014;-0.680;2023-03-01T05:50:00;8.00;;;5.20;;
57249;SDS011;43102;52.014;-0.680;2023-03-01T05:51:00;8.00;;;5.20;;
57249;SDS011;43102;52.014;-0.680;2023-03-01T05:52:00;8.00;;;5.20;;
57249;SDS011;43102;52.014;-0.680;2023-03-01T05:53:06;8.00;;;5.20;;
57249;SDS011;43102;52.014;-0.680;2023-03-01T05:54:00;8.00;;;5.20;;
57249;SDS011;43102;52.014;-0.680;2023-03-01T05:55:00;8.00;;;5.20;;
57249;SDS011;43102;52.014;-0.680;2023-03-01T05:56:03;8.00;;;5.20;;
57249;SDS011;43102;52.014;-0.680;2023-03-01T05:57:00;8.00;;;5.20;;
57249;SDS011;43102;52.014;-0.680;2023-03-01T05:58:03;8.00;;;5.20;;
57249;SDS011;43102;52.014;-0.680;2023-03-01T05:59:01;8.00;;;5.20;;
57249;SDS011;43102;52.014;-0.680;2023-03-01T06:00:00;8.00;;;5.20;;